TimeEDT,TemperatureF,Dew PointF,Humidity,Sea Level PressureIn,VisibilityMPH,Wind Direction,Wind SpeedMPH,Gust SpeedMPH,PrecipitationIn,Events,Conditions,WindDirDegrees,DateUTC
12:53 AM,59.0,53.1,81,30.26,10.0,NE,5.8,-,N/A,,Clear,50,2013-09-18 04:53:00
1:53 AM,57.9,52.0,81,30.26,10.0,NE,5.8,-,N/A,,Clear,40,2013-09-18 05:53:00
2:53 AM,55.9,51.1,84,30.25,10.0,NNE,5.8,-,N/A,,Clear,20,2013-09-18 06:53:00
3:53 AM,53.1,51.1,93,30.25,10.0,NNE,6.9,-,N/A,,Clear,20,2013-09-18 07:53:00
4:53 AM,53.1,50.0,89,30.24,10.0,NNE,5.8,-,N/A,,Clear,20,2013-09-18 08:53:00
5:53 AM,53.1,50.0,89,30.24,10.0,North,4.6,-,N/A,,Clear,360,2013-09-18 09:53:00
6:53 AM,51.1,48.9,92,30.25,10.0,NNE,5.8,-,N/A,,Clear,20,2013-09-18 10:53:00
7:53 AM,55.9,51.1,84,30.26,10.0,North,9.2,-,N/A,,Clear,10,2013-09-18 11:53:00
8:53 AM,61.0,50.0,67,30.27,10.0,North,11.5,-,N/A,,Clear,10,2013-09-18 12:53:00
9:53 AM,64.0,51.1,63,30.27,10.0,NNE,10.4,16.1,N/A,,Clear,30,2013-09-18 13:53:00
10:53 AM,68.0,52.0,56,30.27,10.0,NNE,9.2,-,N/A,,Clear,30,2013-09-18 14:53:00
11:53 AM,71.1,52.0,51,30.25,10.0,North,4.6,-,N/A,,Clear,10,2013-09-18 15:53:00
12:53 PM,75.0,50.0,41,30.23,10.0,North,9.2,-,N/A,,Clear,350,2013-09-18 16:53:00
1:53 PM,75.9,48.0,37,30.20,10.0,ENE,10.4,-,N/A,,Clear,60,2013-09-18 17:53:00
2:53 PM,78.1,46.9,33,30.19,10.0,Variable,6.9,-,N/A,,Clear,0,2013-09-18 18:53:00
3:53 PM,79.0,48.0,34,30.17,10.0,NE,9.2,-,N/A,,Clear,50,2013-09-18 19:53:00
4:53 PM,78.1,46.9,33,30.16,10.0,North,8.1,-,N/A,,Clear,10,2013-09-18 20:53:00
5:53 PM,75.0,48.0,38,30.15,10.0,ENE,4.6,-,N/A,,Clear,60,2013-09-18 21:53:00
6:53 PM,71.1,52.0,51,30.15,10.0,NNE,3.5,-,N/A,,Clear,30,2013-09-18 22:53:00
7:53 PM,66.0,53.1,63,30.15,10.0,North,3.5,-,N/A,,Clear,10,2013-09-18 23:53:00
8:53 PM,64.0,52.0,65,30.17,10.0,NNE,4.6,-,N/A,,Clear,20,2013-09-19 00:53:00
9:53 PM,62.1,53.1,72,30.18,10.0,North,4.6,-,N/A,,Clear,10,2013-09-19 01:53:00
10:53 PM,60.1,53.1,78,30.18,10.0,NNE,4.6,-,N/A,,Clear,20,2013-09-19 02:53:00
11:53 PM,59.0,53.1,81,30.18,10.0,Calm,Calm,-,N/A,,Clear,0,2013-09-19 03:53:00